sensor_id;sensor_type;location;lat;lon;timestamp;pressure;altitude;pressure_sealevel;temperature;humidity
4590;BME280;2307;48.448;9.216;2023-03-20T00:01:48;95608.41;;;9.00;100.00
4590;BME280;2307;48.448;9.216;2023-03-20T00:04:15;95609.38;;;8.88;100.00
4590;BME280;2307;48.448;9.216;2023-03-20T00:06:41;95610.00;;;8.83;100.00
4590;BME280;2307;48.448;9.216;2023-03-20T00:09:08;95607.22;;;8.78;100.00
4590;BME280;2307;48.448;9.216;2023-03-20T00:11:38;95602.28;;;8.64;100.00
4590;BME280;2307;48.448;9.216;2023-03-20T00:14:08;95608.56;;;8.63;100.00
4590;BME280;2307;48.448;9.216;2023-03-20T00:16:36;95598.28;;;8.61;100.00
4590;BME280;2307;48.448;9.216;2023-03-20T00:19:03;95607.19;;;8.60;100.00
4590;BME280;2307;48.448;9.216;2023-03-20T00:21:30;95607.13;;;8.67;100.00
4590;BME280;2307;48.448;9.216;2023-03-20T00:23:57;95613.94;;;8.74;100.00
4590;BME280;2307;48.448;9.216;2023-03-20T00:26:25;95614.16;;;8.73;100.00
4590;BME280;2307;48.448;9.216;2023-03-20T00:28:53;95615.53;;;8.75;100.00
4590;BME280;2307;48.448;9.216;2023-03-20T00:31:22;95611.19;;;8.63;100.00
4590;BME280;2307;48.448;9.216;2023-03-20T00:33:50;95622.34;;;8.65;100.00
4590;BME280;2307;48.448;9.216;2023-03-20T00:36:17;95620.47;;;8.72;100.00
4590;BME280;2307;48.448;9.216;2023-03-20T00:38:43;95618.41;;;8.92;100.00
4590;BME280;2307;48.448;9.216;2023-03-20T00:41:13;95610.81;;;8.84;100.00
4590;BME280;2307;48.448;9.216;2023-03-20T00:43:45;95612.25;;;8.62;100.00
4590;BME280;2307;48.448;9.216;2023-03-20T00:46:12;95604.34;;;8.62;100.00
4590;BME280;2307;48.448;9.216;2023-03-20T00:48:41;95615.41;;;8.70;100.00
4590;BME280;2307;48.448;9.216;2023-03-20T00:51:08;95608.16;;;8.66;100.00
4590;BME280;2307;48.448;9.216;2023-03-20T00:53:34;95613.69;;;8.58;100.00
4590;BME280;2307;48.448;9.216;2023-03-20T00:56:01;95612.56;;;8.72;100.00
4590;BME280;2307;48.448;9.216;2023-03-20T00:58:28;95616.25;;;8.64;100.00
4590;BME280;2307;48.448;9.216;2023-03-20T01:00:54;95612.88;;;8.57;100.00
4590;BME280;2307;48.448;9.216;2023-03-20T01:03:22;95614.38;;;8.71;100.00
4590;BME280;2307;48.448;9.216;2023-03-20T01:05:50;95611.25;;;8.81;100.00
4590;BME280;2307;48.448;9.216;2023-03-20T01:08:17;95618.28;;;8.87;100.00
4590;BME280;2307;48.448;9.216;2023-03-20T01:10:45;95617.38;;;8.75;100.00
4590;BME280;2307;48.448;9.216;2023-03-20T01:13:14;95616.34;;;8.76;100.00
4590;BME280;2307;48.448;9.216;2023-03-20T01:15:42;95627.25;;;8.97;100.00
4590;BME280;2307;48.448;9.216;2023-03-20T01:18:10;95615.13;;;8.96;100.00
4590;BME280;2307;48.448;9.216;2023-03-20T01:20:37;95627.00;;;8.87;100.00
4590;BME280;2307;48.448;9.216;2023-03-20T01:23:05;95624.13;;;8.89;100.00
4590;BME280;2307;48.448;9.216;2023-03-20T01:25:32;95626.59;;;8.66;100.00
4590;BME280;2307;48.448;9.216;2023-03-20T01:27:58;95622.78;;;8.37;100.00
4590;BME280;2307;48.448;9.216;2023-03-20T01:30:26;95620.28;;;8.17;100.00
4590;BME280;2307;48.448;9.216;2023-03-20T01:32:53;95617.84;;;8.16;100.00
4590;BME280;2307;48.448;9.216;2023-03-20T01:35:20;95625.16;;;8.14;100.00
4590;BME280;2307;48.448;9.216;2023-03-20T01:37:48;95622.16;;;8.10;100.00
4590;BME280;2307;48.448;9.216;2023-03-20T01:40:19;95617.47;;;8.12;100.00
4590;BME280;2307;48.448;9.216;2023-03-20T01:42:48;95619.84;;;8.20;100.00
4590;BME280;2307;48.448;9.216;2023-03-20T01:45:15;95616.25;;;8.15;100.00
4590;BME280;2307;48.448;9.216;2023-03-20T01:47:42;95616.78;;;8.23;100.00
4590;BME280;2307;48.448;9.216;2023-03-20T01:50:16;95622.84;;;8.30;100.00
4590;BME280;2307;48.448;9.216;2023-03-20T01:52:43;95621.81;;;8.31;100.00
4590;BME280;2307;48.448;9.216;2023-03-20T01:55:10;95618.16;;;8.32;100.00
4590;BME280;2307;48.448;9.216;2023-03-20T01:57:38;95620.09;;;8.12;100.00
4590;BME280;2307;48.448;9.216;2023-03-20T02:00:05;95617.03;;;8.15;100.00
4590;BME280;2307;48.448;9.216;2023-03-20T02:02:34;95622.03;;;8.30;100.00
4590;BME280;2307;48.448;9.216;2023-03-20T02:05:03;95628.25;;;8.35;100.00
4590;BME280;2307;48.448;9.216;2023-03-20T02:07:32;95622.25;;;8.28;100.00
4590;BME280;2307;48.448;9.216;2023-03-20T02:10:00;95621.03;;;8.24;100.00
4590;BME280;2307;48.448;9.216;2023-03-20T02:12:26;95626.34;;;8.18;100.00
4590;BME280;2307;48.448;9.216;2023-03-20T02:14:54;95632.34;;;8.00;100.00
4590;BME280;2307;48.448;9.216;2023-03-20T02:17:22;95632.88;;;8.09;100.00
4590;BME280;2307;48.448;9.216;2023-03-20T02:19:53;95632.53;;;8.05;100.00
4590;BME280;2307;48.448;9.216;2023-03-20T02:22:26;95633.28;;;8.06;100.00
4590;BME280;2307;48.448;9.216;2023-03-20T02:27:55;95632.41;;;8.18;100.00
4590;BME280;2307;48.448;9.216;2023-03-20T02:30:35;95634.28;;;8.11;100.00
4590;BME280;2307;48.448;9.216;2023-03-20T02:38:56;95648.25;;;8.12;100.00
4590;BME280;2307;48.448;9.216;2023-03-20T02:41:25;95649.53;;;7.96;100.00
4590;BME280;2307;48.448;9.216;2023-03-20T02:43:57;95649.47;;;8.09;100.00
4590;BME280;2307;48.448;9.216;2023-03-20T02:46:28;95654.72;;;8.09;100.00
4590;BME280;2307;48.448;9.216;2023-03-20T02:48:58;95642.78;;;8.13;100.00
4590;BME280;2307;48.448;9.216;2023-03-20T02:51:29;95650.63;;;8.20;100.00
4590;BME280;2307;48.448;9.216;2023-03-20T02:54:02;95646.78;;;8.16;100.00
4590;BME280;2307;48.448;9.216;2023-03-20T02:56:33;95650.47;;;8.15;100.00
4590;BME280;2307;48.448;9.216;2023-03-20T02:59:02;95646.53;;;8.24;100.00
4590;BME280;2307;48.448;9.216;2023-03-20T03:01:32;95641.28;;;8.30;100.00
4590;BME280;2307;48.448;9.216;2023-03-20T03:03:59;95652.09;;;8.40;100.00
4590;BME280;2307;48.448;9.216;2023-03-20T03:06:28;95654.53;;;8.42;100.00
4590;BME280;2307;48.448;9.216;2023-03-20T03:08:57;95643.28;;;8.28;100.00
4590;BME280;2307;48.448;9.216;2023-03-20T03:11:27;95652.38;;;8.32;100.00
4590;BME280;2307;48.448;9.216;2023-03-20T03:13:55;95653.41;;;8.25;100.00
4590;BME280;2307;48.448;9.216;2023-03-20T03:16:23;95658.88;;;8.23;100.00
4590;BME280;2307;48.448;9.216;2023-03-20T03:18:53;95655.91;;;8.13;100.00
4590;BME280;2307;48.448;9.216;2023-03-20T03:21:22;95653.56;;;8.05;100.00
4590;BME280;2307;48.448;9.216;2023-03-20T03:23:48;95650.31;;;8.03;100.00
4590;BME280;2307;48.448;9.216;2023-03-20T03:26:17;95654.00;;;8.27;100.00
4590;BME280;2307;48.448;9.216;2023-03-20T03:28:47;95653.13;;;8.39;100.00
4590;BME280;2307;48.448;9.216;2023-03-20T03:31:15;95657.34;;;8.40;100.00
4590;BME280;2307;48.448;9.216;2023-03-20T03:33:43;95658.72;;;8.49;100.00
4590;BME280;2307;48.448;9.216;2023-03-20T03:36:12;95662.09;;;8.57;100.00
4590;BME280;2307;48.448;9.216;2023-03-20T03:38:43;95665.09;;;8.35;100.00
4590;BME280;2307;48.448;9.216;2023-03-20T03:41:17;95663.91;;;8.31;100.00
4590;BME280;2307;48.448;9.216;2023-03-20T03:43:48;95660.28;;;8.32;100.00
4590;BME280;2307;48.448;9.216;2023-03-20T03:46:18;95665.09;;;8.35;100.00
4590;BME280;2307;48.448;9.216;2023-03-20T03:48:49;95660.50;;;8.24;100.00
4590;BME280;2307;48.448;9.216;2023-03-20T03:51:19;95662.91;;;8.26;100.00
4590;BME280;2307;48.448;9.216;2023-03-20T03:53:48;95669.00;;;8.26;100.00
4590;BME280;2307;48.448;9.216;2023-03-20T03:56:18;95663.16;;;8.24;100.00
4590;BME280;2307;48.448;9.216;2023-03-20T03:58:48;95669.41;;;8.23;100.00
4590;BME280;2307;48.448;9.216;2023-03-20T04:01:16;95676.63;;;8.34;100.00
4590;BME280;2307;48.448;9.216;2023-03-20T04:03:44;95676.06;;;8.26;100.00
4590;BME280;2307;48.448;9.216;2023-03-20T04:06:11;95666.81;;;8.17;100.00
4590;BME280;2307;48.448;9.216;2023-03-20T04:08:38;95670.44;;;8.22;100.00
4590;BME280;2307;48.448;9.216;2023-03-20T04:11:05;95669.66;;;8.15;100.00
4590;BME280;2307;48.448;9.216;2023-03-20T04:13:31;95680.03;;;8.10;100.00
4590;BME280;2307;48.448;9.216;2023-03-20T04:15:59;95675.38;;;8.06;100.00
4590;BME280;2307;48.448;9.216;2023-03-20T04:18:25;95682.91;;;8.02;100.00
4590;BME280;2307;48.448;9.216;2023-03-20T04:20:52;95686.13;;;8.04;100.00
4590;BME280;2307;48.448;9.216;2023-03-20T04:23:18;95683.03;;;8.14;100.00
4590;BME280;2307;48.448;9.216;2023-03-20T04:25:45;95685.09;;;8.12;100.00
4590;BME280;2307;48.448;9.216;2023-03-20T04:28:11;95685.31;;;8.03;100.00
4590;BME280;2307;48.448;9.216;2023-03-20T04:30:40;95677.44;;;8.03;100.00
4590;BME280;2307;48.448;9.216;2023-03-20T04:33:09;95693.88;;;7.99;100.00
4590;BME280;2307;48.448;9.216;2023-03-20T04:35:36;95685.75;;;8.00;100.00
4590;BME280;2307;48.448;9.216;2023-03-20T04:38:02;95680.88;;;8.04;100.00
4590;BME280;2307;48.448;9.216;2023-03-20T04:40:28;95685.19;;;7.92;100.00
4590;BME280;2307;48.448;9.216;2023-03-20T04:42:55;95686.22;;;7.91;100.00
4590;BME280;2307;48.448;9.216;2023-03-20T04:45:22;95673.06;;;7.91;100.00
4590;BME280;2307;48.448;9.216;2023-03-20T04:47:48;95674.25;;;7.95;100.00
4590;BME280;2307;48.448;9.216;2023-03-20T04:50:16;95672.69;;;7.81;100.00
4590;BME280;2307;48.448;9.216;2023-03-20T04:52:42;95666.03;;;7.78;100.00
4590;BME280;2307;48.448;9.216;2023-03-20T04:55:09;95661.00;;;7.77;100.00
4590;BME280;2307;48.448;9.216;2023-03-20T04:57:35;95663.69;;;7.64;100.00
4590;BME280;2307;48.448;9.216;2023-03-20T05:00:04;95654.63;;;7.60;100.00
4590;BME280;2307;48.448;9.216;2023-03-20T05:02:31;95657.25;;;7.60;100.00
4590;BME280;2307;48.448;9.216;2023-03-20T05:04:57;95660.69;;;7.60;100.00
4590;BME280;2307;48.448;9.216;2023-03-20T05:07:25;95664.34;;;7.53;100.00
4590;BME280;2307;48.448;9.216;2023-03-20T05:09:51;95670.81;;;7.57;100.00
4590;BME280;2307;48.448;9.216;2023-03-20T05:12:18;95670.81;;;7.57;100.00
4590;BME280;2307;48.448;9.216;2023-03-20T05:14:44;95681.53;;;7.48;100.00
4590;BME280;2307;48.448;9.216;2023-03-20T05:17:11;95672.88;;;7.48;100.00
4590;BME280;2307;48.448;9.216;2023-03-20T05:19:37;95684.16;;;7.48;100.00
4590;BME280;2307;48.448;9.216;2023-03-20T05:22:04;95688.75;;;7.66;100.00
4590;BME280;2307;48.448;9.216;2023-03-20T05:24:31;95694.19;;;7.71;100.00
4590;BME280;2307;48.448;9.216;2023-03-20T05:26:58;95687.31;;;7.77;100.00
4590;BME280;2307;48.448;9.216;2023-03-20T05:29:24;95689.38;;;7.62;100.00
4590;BME280;2307;48.448;9.216;2023-03-20T05:31:51;95696.25;;;7.63;100.00
4590;BME280;2307;48.448;9.216;2023-03-20T05:34:18;95692.16;;;7.80;100.00
4590;BME280;2307;48.448;9.216;2023-03-20T05:36:44;95692.56;;;7.77;100.00
4590;BME280;2307;48.448;9.216;2023-03-20T05:39:11;95709.09;;;7.84;100.00
4590;BME280;2307;48.448;9.216;2023-03-20T05:41:38;95710.16;;;7.76;100.00
4590;BME280;2307;48.448;9.216;2023-03-20T05:44:05;95719.06;;;7.69;100.00
4590;BME280;2307;48.448;9.216;2023-03-20T05:46:31;95715.25;;;7.65;100.00
4590;BME280;2307;48.448;9.216;2023-03-20T05:48:58;95716.88;;;7.66;100.00
4590;BME280;2307;48.448;9.216;2023-03-20T05:51:24;95702.31;;;7.63;100.00
4590;BME280;2307;48.448;9.216;2023-03-20T05:53:51;95703.47;;;7.74;100.00
4590;BME280;2307;48.448;9.216;2023-03-20T05:56:17;95697.03;;;7.70;100.00
4590;BME280;2307;48.448;9.216;2023-03-20T05:58:45;95700.44;;;7.77;100.00
4590;BME280;2307;48.448;9.216;2023-03-20T06:01:11;95703.09;;;7.77;100.00
4590;BME280;2307;48.448;9.216;2023-03-20T06:03:40;95706.88;;;7.81;100.00
4590;BME280;2307;48.448;9.216;2023-03-20T06:06:07;95707.06;;;7.86;100.00
4590;BME280;2307;48.448;9.216;2023-03-20T06:08:34;95707.06;;;7.86;100.00
4590;BME280;2307;48.448;9.216;2023-03-20T06:11:03;95714.72;;;7.94;100.00
4590;BME280;2307;48.448;9.216;2023-03-20T06:13:30;95711.84;;;8.02;100.00
4590;BME280;2307;48.448;9.216;2023-03-20T06:15:58;95720.28;;;8.11;100.00
4590;BME280;2307;48.448;9.216;2023-03-20T06:18:24;95729.94;;;8.23;100.00
4590;BME280;2307;48.448;9.216;2023-03-20T06:20:51;95733.63;;;8.09;100.00
4590;BME280;2307;48.448;9.216;2023-03-20T06:23:17;95739.06;;;8.21;100.00
4590;BME280;2307;48.448;9.216;2023-03-20T06:25:44;95737.06;;;8.16;100.00
4590;BME280;2307;48.448;9.216;2023-03-20T06:28:11;95743.94;;;8.17;100.00
4590;BME280;2307;48.448;9.216;2023-03-20T06:30:37;95743.75;;;8.12;100.00
4590;BME280;2307;48.448;9.216;2023-03-20T06:33:06;95748.22;;;8.12;100.00
4590;BME280;2307;48.448;9.216;2023-03-20T06:35:32;95751.47;;;8.07;100.00
4590;BME280;2307;48.448;9.216;2023-03-20T06:37:59;95753.06;;;8.15;100.00
4590;BME280;2307;48.448;9.216;2023-03-20T06:40:25;95754.81;;;8.27;100.00
4590;BME280;2307;48.448;9.216;2023-03-20T06:42:52;95757.06;;;8.24;100.00
4590;BME280;2307;48.448;9.216;2023-03-20T06:45:19;95754.63;;;8.22;100.00
4590;BME280;2307;48.448;9.216;2023-03-20T06:47:45;95755.84;;;8.20;100.00
4590;BME280;2307;48.448;9.216;2023-03-20T06:50:13;95749.94;;;8.31;100.00
4590;BME280;2307;48.448;9.216;2023-03-20T06:52:40;95749.75;;;8.32;100.00
4590;BME280;2307;48.448;9.216;2023-03-20T06:55:07;95744.06;;;8.35;100.00
4590;BME280;2307;48.448;9.216;2023-03-20T06:57:33;95732.91;;;8.40;100.00
4590;BME280;2307;48.448;9.216;2023-03-20T07:00:00;95730.22;;;8.46;100.00
4590;BME280;2307;48.448;9.216;2023-03-20T07:02:28;95735.81;;;8.57;100.00
4590;BME280;2307;48.448;9.216;2023-03-20T07:04:54;95734.63;;;8.52;100.00
4590;BME280;2307;48.448;9.216;2023-03-20T07:07:22;95746.34;;;8.57;100.00
4590;BME280;2307;48.448;9.216;2023-03-20T07:09:49;95743.38;;;8.46;100.00
4590;BME280;2307;48.448;9.216;2023-03-20T07:12:15;95745.31;;;8.58;100.00
4590;BME280;2307;48.448;9.216;2023-03-20T07:14:43;95745.91;;;8.60;100.00
4590;BME280;2307;48.448;9.216;2023-03-20T07:17:10;95743.28;;;8.60;100.00
4590;BME280;2307;48.448;9.216;2023-03-20T07:19:37;95729.69;;;8.63;100.00
4590;BME280;2307;48.448;9.216;2023-03-20T07:22:04;95742.84;;;8.63;100.00
4590;BME280;2307;48.448;9.216;2023-03-20T07:24:33;95754.75;;;8.72;100.00
4590;BME280;2307;48.448;9.216;2023-03-20T07:26:59;95748.56;;;8.84;100.00
4590;BME280;2307;48.448;9.216;2023-03-20T07:29:26;95753.78;;;8.91;100.00
4590;BME280;2307;48.448;9.216;2023-03-20T07:31:52;95761.09;;;8.89;100.00
4590;BME280;2307;48.448;9.216;2023-03-20T07:34:19;95760.66;;;8.92;100.00
4590;BME280;2307;48.448;9.216;2023-03-20T07:36:45;95751.44;;;9.26;100.00
4590;BME280;2307;48.448;9.216;2023-03-20T07:39:12;95762.44;;;9.23;100.00
4590;BME280;2307;48.448;9.216;2023-03-20T07:41:40;95759.72;;;9.29;100.00
4590;BME280;2307;48.448;9.216;2023-03-20T07:44:06;95766.50;;;9.19;100.00
4590;BME280;2307;48.448;9.216;2023-03-20T07:46:34;95776.25;;;9.18;100.00
4590;BME280;2307;48.448;9.216;2023-03-20T07:49:01;95777.94;;;9.13;100.00
4590;BME280;2307;48.448;9.216;2023-03-20T07:51:27;95776.34;;;9.05;100.00
4590;BME280;2307;48.448;9.216;2023-03-20T07:53:53;95777.53;;;9.09;100.00
4590;BME280;2307;48.448;9.216;2023-03-20T07:56:20;95778.13;;;9.11;100.00
4590;BME280;2307;48.448;9.216;2023-03-20T07:58:48;95772.41;;;9.14;100.00
4590;BME280;2307;48.448;9.216;2023-03-20T08:01:14;95770.91;;;9.25;100.00
4590;BME280;2307;48.448;9.216;2023-03-20T08:03:40;95778.59;;;9.26;100.00
4590;BME280;2307;48.448;9.216;2023-03-20T08:06:07;95766.84;;;9.29;100.00
4590;BME280;2307;48.448;9.216;2023-03-20T08:08:35;95772.44;;;9.32;100.00
4590;BME280;2307;48.448;9.216;2023-03-20T08:11:01;95777.66;;;9.39;100.00
4590;BME280;2307;48.448;9.216;2023-03-20T08:13:27;95776.06;;;9.38;100.00
4590;BME280;2307;48.448;9.216;2023-03-20T08:15:55;95759.13;;;9.45;100.00
4590;BME280;2307;48.448;9.216;2023-03-20T08:18:22;95769.53;;;9.40;100.00
4590;BME280;2307;48.448;9.216;2023-03-20T08:20:48;95768.97;;;9.56;100.00
4590;BME280;2307;48.448;9.216;2023-03-20T08:23:14;95774.53;;;9.48;100.00
4590;BME280;2307;48.448;9.216;2023-03-20T08:25:41;95766.78;;;9.53;100.00
4590;BME280;2307;48.448;9.216;2023-03-20T08:28:11;95770.94;;;9.61;100.00
4590;BME280;2307;48.448;9.216;2023-03-20T08:30:38;95765.69;;;9.79;100.00
4590;BME280;2307;48.448;9.216;2023-03-20T08:33:06;95772.94;;;9.66;100.00
4590;BME280;2307;48.448;9.216;2023-03-20T08:35:32;95776.44;;;9.78;100.00
4590;BME280;2307;48.448;9.216;2023-03-20T08:37:58;95776.75;;;9.88;100.00
4590;BME280;2307;48.448;9.216;2023-03-20T08:40:25;95778.44;;;9.82;100.00
4590;BME280;2307;48.448;9.216;2023-03-20T08:42:51;95778.50;;;9.94;100.00
4590;BME280;2307;48.448;9.216;2023-03-20T08:45:18;95775.06;;;9.75;100.00
4590;BME280;2307;48.448;9.216;2023-03-20T08:47:45;95772.88;;;9.72;100.00
4590;BME280;2307;48.448;9.216;2023-03-20T08:50:13;95774.25;;;9.56;100.00
4590;BME280;2307;48.448;9.216;2023-03-20T08:52:40;95776.69;;;9.76;100.00
4590;BME280;2307;48.448;9.216;2023-03-20T08:55:08;95778.38;;;9.89;100.00
4590;BME280;2307;48.448;9.216;2023-03-20T08:57:34;95780.41;;;9.87;100.00
4590;BME280;2307;48.448;9.216;2023-03-20T09:00:02;95779.38;;;9.88;100.00
4590;BME280;2307;48.448;9.216;2023-03-20T09:02:28;95782.97;;;10.11;100.00
4590;BME280;2307;48.448;9.216;2023-03-20T09:04:54;95781.44;;;10.04;100.00
4590;BME280;2307;48.448;9.216;2023-03-20T09:07:22;95786.34;;;10.19;100.00
4590;BME280;2307;48.448;9.216;2023-03-20T09:09:49;95780.94;;;10.13;100.00
4590;BME280;2307;48.448;9.216;2023-03-20T09:12:15;95779.38;;;10.24;100.00
4590;BME280;2307;48.448;9.216;2023-03-20T09:14:41;95779.00;;;10.50;99.63
4590;BME280;2307;48.448;9.216;2023-03-20T09:17:08;95778.72;;;10.58;100.00
4590;BME280;2307;48.448;9.216;2023-03-20T09:19:34;95787.38;;;10.47;97.77
4590;BME280;2307;48.448;9.216;2023-03-20T09:22:03;95783.16;;;10.46;100.00
4590;BME280;2307;48.448;9.216;2023-03-20T09:24:31;95775.63;;;10.32;100.00
4590;BME280;2307;48.448;9.216;2023-03-20T09:26:58;95786.03;;;10.27;100.00
4590;BME280;2307;48.448;9.216;2023-03-20T09:29:24;95776.44;;;10.32;100.00
4590;BME280;2307;48.448;9.216;2023-03-20T09:31:51;95779.88;;;10.33;99.60
4590;BME280;2307;48.448;9.216;2023-03-20T09:34:20;95785.00;;;10.57;100.00
4590;BME280;2307;48.448;9.216;2023-03-20T09:36:46;95773.81;;;10.74;99.52
4590;BME280;2307;48.448;9.216;2023-03-20T09:39:13;95782.91;;;10.78;96.72
4590;BME280;2307;48.448;9.216;2023-03-20T09:41:42;95781.94;;;10.72;97.79
4590;BME280;2307;48.448;9.216;2023-03-20T09:44:13;95784.03;;;10.82;99.01
4590;BME280;2307;48.448;9.216;2023-03-20T09:49:29;95779.97;;;11.09;93.26
4590;BME280;2307;48.448;9.216;2023-03-20T09:51:59;95791.69;;;11.13;91.82
4590;BME280;2307;48.448;9.216;2023-03-20T09:54:28;95782.34;;;10.99;85.79
4590;BME280;2307;48.448;9.216;2023-03-20T09:57:01;95789.56;;;10.80;88.29
4590;BME280;2307;48.448;9.216;2023-03-20T09:59:28;95780.47;;;10.88;89.17
4590;BME280;2307;48.448;9.216;2023-03-20T10:01:56;95773.06;;;11.08;88.96
4590;BME280;2307;48.448;9.216;2023-03-20T10:04:25;95777.00;;;11.40;80.14
4590;BME280;2307;48.448;9.216;2023-03-20T10:06:53;95780.31;;;11.59;80.40
4590;BME280;2307;48.448;9.216;2023-03-20T10:09:21;95785.25;;;11.55;77.00
4590;BME280;2307;48.448;9.216;2023-03-20T10:12:03;95780.31;;;11.70;80.18
4590;BME280;2307;48.448;9.216;2023-03-20T10:14:35;95777.91;;;11.69;75.74
4590;BME280;2307;48.448;9.216;2023-03-20T10:17:07;95789.19;;;11.53;75.42
4590;BME280;2307;48.448;9.216;2023-03-20T10:19:41;95784.78;;;12.05;75.80
4590;BME280;2307;48.448;9.216;2023-03-20T10:22:10;95777.41;;;12.35;70.49
4590;BME280;2307;48.448;9.216;2023-03-20T10:24:41;95778.75;;;12.49;70.68
4590;BME280;2307;48.448;9.216;2023-03-20T10:27:13;95786.50;;;12.67;68.39
4590;BME280;2307;48.448;9.216;2023-03-20T10:29:44;95795.81;;;12.42;68.36
4590;BME280;2307;48.448;9.216;2023-03-20T10:32:16;95791.53;;;12.12;68.54
4590;BME280;2307;48.448;9.216;2023-03-20T10:34:49;95782.59;;;11.90;68.15
4590;BME280;2307;48.448;9.216;2023-03-20T10:37:22;95783.91;;;11.76;66.26
4590;BME280;2307;48.448;9.216;2023-03-20T10:39:53;95789.41;;;11.51;65.77
4590;BME280;2307;48.448;9.216;2023-03-20T10:42:27;95780.66;;;11.62;68.36
4590;BME280;2307;48.448;9.216;2023-03-20T10:44:56;95798.25;;;11.68;69.62
4590;BME280;2307;48.448;9.216;2023-03-20T10:47:24;95798.16;;;11.63;71.47
4590;BME280;2307;48.448;9.216;2023-03-20T10:49:53;95797.47;;;11.56;72.87
4590;BME280;2307;48.448;9.216;2023-03-20T10:52:23;95810.47;;;11.35;78.76
4590;BME280;2307;48.448;9.216;2023-03-20T10:54:52;95807.22;;;11.09;79.86
4590;BME280;2307;48.448;9.216;2023-03-20T10:57:21;95802.59;;;11.05;81.07
4590;BME280;2307;48.448;9.216;2023-03-20T10:59:50;95803.59;;;10.81;85.37
4590;BME280;2307;48.448;9.216;2023-03-20T11:02:17;95812.09;;;10.83;89.12
4590;BME280;2307;48.448;9.216;2023-03-20T11:04:44;95803.94;;;10.84;90.68
4590;BME280;2307;48.448;9.216;2023-03-20T11:07:12;95796.41;;;10.70;93.81
4590;BME280;2307;48.448;9.216;2023-03-20T11:09:41;95799.84;;;10.58;94.01
4590;BME280;2307;48.448;9.216;2023-03-20T11:12:12;95800.84;;;10.87;95.71
4590;BME280;2307;48.448;9.216;2023-03-20T11:14:40;95801.88;;;10.86;94.34
4590;BME280;2307;48.448;9.216;2023-03-20T11:17:11;95795.47;;;11.17;92.81
4590;BME280;2307;48.448;9.216;2023-03-20T11:19:39;95788.94;;;11.31;86.16
4590;BME280;2307;48.448;9.216;2023-03-20T11:22:08;95790.69;;;11.37;90.15
4590;BME280;2307;48.448;9.216;2023-03-20T11:24:36;95786.75;;;11.51;88.36
4590;BME280;2307;48.448;9.216;2023-03-20T11:27:03;95786.41;;;11.36;85.94
4590;BME280;2307;48.448;9.216;2023-03-20T11:29:30;95778.63;;;11.41;84.62
4590;BME280;2307;48.448;9.216;2023-03-20T11:32:02;95772.72;;;11.39;83.31
4590;BME280;2307;48.448;9.216;2023-03-20T11:34:31;95775.13;;;11.87;81.85
4590;BME280;2307;48.448;9.216;2023-03-20T11:36:59;95775.91;;;12.11;76.28
4590;BME280;2307;48.448;9.216;2023-03-20T11:39:26;95774.03;;;12.51;72.60
4590;BME280;2307;48.448;9.216;2023-03-20T11:41:55;95777.44;;;12.80;68.71
4590;BME280;2307;48.448;9.216;2023-03-20T11:44:22;95781.47;;;12.83;66.75
4590;BME280;2307;48.448;9.216;2023-03-20T11:46:53;95770.31;;;12.81;64.37
4590;BME280;2307;48.448;9.216;2023-03-20T11:49:21;95769.91;;;12.89;65.38
4590;BME280;2307;48.448;9.216;2023-03-20T11:51:50;95775.88;;;12.96;67.66
4590;BME280;2307;48.448;9.216;2023-03-20T11:54:22;95773.53;;;12.99;66.96
4590;BME280;2307;48.448;9.216;2023-03-20T11:56:50;95780.50;;;12.89;65.62
4590;BME280;2307;48.448;9.216;2023-03-20T11:59:17;95767.50;;;12.87;62.79
4590;BME280;2307;48.448;9.216;2023-03-20T12:01:45;95770.06;;;12.99;64.27
4590;BME280;2307;48.448;9.216;2023-03-20T12:04:14;95771.91;;;12.98;65.19
4590;BME280;2307;48.448;9.216;2023-03-20T12:06:42;95774.91;;;13.02;66.16
4590;BME280;2307;48.448;9.216;2023-03-20T12:09:22;95777.06;;;13.05;63.77
4590;BME280;2307;48.448;9.216;2023-03-20T12:11:50;95762.97;;;13.16;61.87
4590;BME280;2307;48.448;9.216;2023-03-20T12:14:20;95765.84;;;13.14;64.16
4590;BME280;2307;48.448;9.216;2023-03-20T12:16:48;95768.91;;;13.23;66.09
4590;BME280;2307;48.448;9.216;2023-03-20T12:19:18;95764.97;;;13.09;60.26
4590;BME280;2307;48.448;9.216;2023-03-20T12:21:47;95761.91;;;13.50;60.75
4590;BME280;2307;48.448;9.216;2023-03-20T12:24:20;95746.41;;;13.64;58.98
4590;BME280;2307;48.448;9.216;2023-03-20T12:26:53;95750.16;;;13.84;58.44
4590;BME280;2307;48.448;9.216;2023-03-20T12:29:22;95746.50;;;13.91;58.44
4590;BME280;2307;48.448;9.216;2023-03-20T12:31:52;95746.88;;;13.77;58.58
4590;BME280;2307;48.448;9.216;2023-03-20T12:34:22;95738.28;;;13.70;60.20
4590;BME280;2307;48.448;9.216;2023-03-20T12:36:50;95745.75;;;13.73;60.84
4590;BME280;2307;48.448;9.216;2023-03-20T12:39:20;95735.34;;;13.89;63.57
4590;BME280;2307;48.448;9.216;2023-03-20T12:41:51;95739.44;;;13.79;59.69
4590;BME280;2307;48.448;9.216;2023-03-20T12:44:28;95737.22;;;13.71;61.98
4590;BME280;2307;48.448;9.216;2023-03-20T12:46:59;95743.44;;;14.20;59.19
4590;BME280;2307;48.448;9.216;2023-03-20T12:49:33;95731.00;;;14.26;58.04
4590;BME280;2307;48.448;9.216;2023-03-20T12:52:05;95733.38;;;14.27;59.65
4590;BME280;2307;48.448;9.216;2023-03-20T12:54:43;95740.63;;;14.32;58.73
4590;BME280;2307;48.448;9.216;2023-03-20T12:57:17;95736.56;;;14.03;60.65
4590;BME280;2307;48.448;9.216;2023-03-20T12:59:50;95748.91;;;13.92;60.65
4590;BME280;2307;48.448;9.216;2023-03-20T13:02:26;95735.69;;;13.75;60.00
4590;BME280;2307;48.448;9.216;2023-03-20T13:05:00;95734.94;;;14.02;59.87
4590;BME280;2307;48.448;9.216;2023-03-20T13:07:33;95733.88;;;13.59;58.68
4590;BME280;2307;48.448;9.216;2023-03-20T13:10:08;95734.09;;;13.03;60.35
4590;BME280;2307;48.448;9.216;2023-03-20T13:12:36;95732.25;;;13.20;59.56
4590;BME280;2307;48.448;9.216;2023-03-20T13:15:15;95734.75;;;13.10;58.89
4590;BME280;2307;48.448;9.216;2023-03-20T13:17:45;95720.25;;;13.01;62.39
4590;BME280;2307;48.448;9.216;2023-03-20T13:20:18;95720.09;;;12.91;62.71
4590;BME280;2307;48.448;9.216;2023-03-20T13:22:47;95723.31;;;12.93;63.83
4590;BME280;2307;48.448;9.216;2023-03-20T13:25:22;95720.25;;;13.01;62.77
4590;BME280;2307;48.448;9.216;2023-03-20T13:27:52;95721.88;;;13.02;60.52
4590;BME280;2307;48.448;9.216;2023-03-20T13:30:23;95708.06;;;13.00;60.91
4590;BME280;2307;48.448;9.216;2023-03-20T13:32:56;95705.81;;;13.25;61.69
4590;BME280;2307;48.448;9.216;2023-03-20T13:35:29;95713.28;;;13.28;58.87
4590;BME280;2307;48.448;9.216;2023-03-20T13:38:00;95710.16;;;13.14;59.19
4590;BME280;2307;48.448;9.216;2023-03-20T13:40:30;95705.00;;;13.08;59.62